Terminal Aerodrome Forecast
Issued by NWS Sterling, VA

Home | Current Version | Previous Version | Text Only | Print | Product List | Glossary On
Versions: 1 2 3 4 5 6 7 8 9 10 11 12 13 14
000
FTUS41 KLWX 181734
TAFMRB
TAF
KMRB 181734Z 1818/1918 25005KT P6SM FEW045 SCT250
     FM182000 25007KT P6SM BKN040
     FM190500 VRB03KT P6SM BKN025
     FM191400 24008KT P6SM SCT035
     FM191700 25012G19KT P6SM SCT035=

USA.gov is the U.S. government's official web portal to all federal, state and local government web resources and services.